Princeton, West Virginia
Current Conditions -  °F | °C
As of 3:52 PM on Friday 31 Oct 2014 (Local Time) from KBLF Reporting Station
Overcast Overcast  
Wind Chill: 42°   Ceiling: 2900
Heat Index: 44°   Visibility: 10mi
Dew Point: 39°   Wind: 5mph
Humidity: 82%   Direction: 290°WNW
Pressure: 29.82"   Gusts: NA
Location:  37.37°N, 81.1°W
Report Text: KBLF 311952Z AUTO 29004KT 10SM FEW009 BKN029 OVC034 07/04 A2982 RMK AO2 RAE19B35E39 SLP102 P0000 T00670039
Loading
Personal Weather Stations






























Interactive Weather Map
Tropical Storm Tracking
New forecast layout! Learn more

10-Day Weather Forecast

Advertisements
Track Severe Weather on mobile